sensor_id;sensor_type;location;lat;lon;timestamp;pressure;altitude;pressure_sealevel;temperature;humidity
17230;BME280;8731;50.364;8.958;2023-02-11T00:02:25;102097.31;;;1.08;84.62
17230;BME280;8731;50.364;8.958;2023-02-11T00:06:50;102095.13;;;1.15;84.24
17230;BME280;8731;50.364;8.958;2023-02-11T00:11:13;102089.25;;;1.20;85.40
17230;BME280;8731;50.364;8.958;2023-02-11T00:15:36;102087.47;;;1.25;85.13
17230;BME280;8731;50.364;8.958;2023-02-11T00:19:58;102084.34;;;1.32;85.74
17230;BME280;8731;50.364;8.958;2023-02-11T00:24:22;102083.97;;;1.40;84.54
17230;BME280;8731;50.364;8.958;2023-02-11T00:28:45;102080.38;;;1.43;84.92
17230;BME280;8731;50.364;8.958;2023-02-11T00:33:08;102073.56;;;1.48;85.73
17230;BME280;8731;50.364;8.958;2023-02-11T00:37:30;102067.22;;;1.56;85.63
17230;BME280;8731;50.364;8.958;2023-02-11T00:41:57;102074.13;;;1.62;85.64
17230;BME280;8731;50.364;8.958;2023-02-11T00:46:21;102072.59;;;1.68;85.71
17230;BME280;8731;50.364;8.958;2023-02-11T00:50:43;102072.66;;;1.74;85.12
17230;BME280;8731;50.364;8.958;2023-02-11T00:55:06;102074.28;;;1.79;84.64
17230;BME280;8731;50.364;8.958;2023-02-11T00:59:30;102074.31;;;1.84;85.00
17230;BME280;8731;50.364;8.958;2023-02-11T01:03:54;102070.00;;;1.89;85.20
17230;BME280;8731;50.364;8.958;2023-02-11T01:08:17;102062.06;;;1.92;85.16
17230;BME280;8731;50.364;8.958;2023-02-11T01:12:39;102060.72;;;1.94;86.47
17230;BME280;8731;50.364;8.958;2023-02-11T01:17:04;102056.41;;;1.98;86.44
17230;BME280;8731;50.364;8.958;2023-02-11T01:21:26;102054.34;;;2.01;86.19
17230;BME280;8731;50.364;8.958;2023-02-11T01:25:49;102052.53;;;2.00;87.19
17230;BME280;8731;50.364;8.958;2023-02-11T01:30:12;102036.31;;;1.98;87.93
17230;BME280;8731;50.364;8.958;2023-02-11T01:34:36;102034.28;;;2.07;87.50
17230;BME280;8731;50.364;8.958;2023-02-11T01:38:59;102033.16;;;2.10;87.32
17230;BME280;8731;50.364;8.958;2023-02-11T01:43:22;102020.44;;;2.14;86.63
17230;BME280;8731;50.364;8.958;2023-02-11T01:47:45;102013.97;;;2.11;87.69
17230;BME280;8731;50.364;8.958;2023-02-11T01:52:11;102004.66;;;2.15;87.02
17230;BME280;8731;50.364;8.958;2023-02-11T01:56:45;101996.00;;;2.19;86.78
17230;BME280;8731;50.364;8.958;2023-02-11T02:01:27;101991.44;;;2.22;86.72
17230;BME280;8731;50.364;8.958;2023-02-11T02:05:56;101992.59;;;2.24;86.55
17230;BME280;8731;50.364;8.958;2023-02-11T02:10:26;101987.81;;;2.26;86.62
17230;BME280;8731;50.364;8.958;2023-02-11T02:14:49;101998.56;;;2.30;87.06
17230;BME280;8731;50.364;8.958;2023-02-11T02:24:45;102007.03;;;2.36;86.63
17230;BME280;8731;50.364;8.958;2023-02-11T02:29:41;102013.47;;;2.40;86.83
17230;BME280;8731;50.364;8.958;2023-02-11T02:34:28;102016.44;;;2.43;87.14
17230;BME280;8731;50.364;8.958;2023-02-11T02:39:00;102012.13;;;2.47;86.72
17230;BME280;8731;50.364;8.958;2023-02-11T02:43:28;102016.25;;;2.47;87.49
17230;BME280;8731;50.364;8.958;2023-02-11T02:47:51;101997.28;;;2.49;87.75
17230;BME280;8731;50.364;8.958;2023-02-11T02:52:27;101986.78;;;2.52;87.14
17230;BME280;8731;50.364;8.958;2023-02-11T02:57:02;101985.88;;;2.57;87.07
17230;BME280;8731;50.364;8.958;2023-02-11T03:01:41;101981.53;;;2.56;86.34
17230;BME280;8731;50.364;8.958;2023-02-11T03:06:14;101973.53;;;2.58;86.61
17230;BME280;8731;50.364;8.958;2023-02-11T03:10:46;101968.72;;;2.60;86.60
17230;BME280;8731;50.364;8.958;2023-02-11T03:15:12;101955.75;;;2.62;86.08
17230;BME280;8731;50.364;8.958;2023-02-11T03:19:38;101949.13;;;2.63;86.26
17230;BME280;8731;50.364;8.958;2023-02-11T03:24:06;101940.88;;;2.64;86.24
17230;BME280;8731;50.364;8.958;2023-02-11T03:28:38;101931.97;;;2.60;86.52
17230;BME280;8731;50.364;8.958;2023-02-11T03:33:09;101912.09;;;2.62;86.46
17230;BME280;8731;50.364;8.958;2023-02-11T03:37:42;101917.31;;;2.58;87.15
17230;BME280;8731;50.364;8.958;2023-02-11T03:42:13;101930.09;;;2.59;87.33
17230;BME280;8731;50.364;8.958;2023-02-11T03:46:39;101927.84;;;2.61;87.39
17230;BME280;8731;50.364;8.958;2023-02-11T03:51:07;101914.84;;;2.63;86.68
17230;BME280;8731;50.364;8.958;2023-02-11T03:55:33;101934.25;;;2.64;87.35
17230;BME280;8731;50.364;8.958;2023-02-11T03:59:58;101940.66;;;2.68;88.05
17230;BME280;8731;50.364;8.958;2023-02-11T04:04:22;101937.47;;;2.69;87.52
17230;BME280;8731;50.364;8.958;2023-02-11T04:08:44;101939.75;;;2.67;88.02
17230;BME280;8731;50.364;8.958;2023-02-11T04:13:07;101951.88;;;2.70;87.93
17230;BME280;8731;50.364;8.958;2023-02-11T04:17:29;101946.38;;;2.72;88.18
17230;BME280;8731;50.364;8.958;2023-02-11T04:21:52;101921.91;;;2.71;87.71
17230;BME280;8731;50.364;8.958;2023-02-11T04:26:15;101920.78;;;2.75;88.07
17230;BME280;8731;50.364;8.958;2023-02-11T04:30:37;101907.53;;;2.76;88.97
17230;BME280;8731;50.364;8.958;2023-02-11T04:34:59;101906.38;;;2.74;89.00
17230;BME280;8731;50.364;8.958;2023-02-11T04:39:23;101918.72;;;2.72;88.66
17230;BME280;8731;50.364;8.958;2023-02-11T04:43:45;101921.00;;;2.76;89.00
17230;BME280;8731;50.364;8.958;2023-02-11T04:48:07;101918.03;;;2.79;89.35
17230;BME280;8731;50.364;8.958;2023-02-11T04:52:30;101921.69;;;2.81;89.69
17230;BME280;8731;50.364;8.958;2023-02-11T04:56:53;101920.13;;;2.87;89.07
17230;BME280;8731;50.364;8.958;2023-02-11T05:01:15;101915.31;;;2.89;88.42
17230;BME280;8731;50.364;8.958;2023-02-11T05:05:38;101922.41;;;2.91;88.00
17230;BME280;8731;50.364;8.958;2023-02-11T05:10:01;101930.38;;;2.83;89.71
17230;BME280;8731;50.364;8.958;2023-02-11T05:14:25;101933.63;;;2.88;88.13
17230;BME280;8731;50.364;8.958;2023-02-11T05:18:47;101914.88;;;2.86;89.73
17230;BME280;8731;50.364;8.958;2023-02-11T05:23:10;101918.06;;;2.90;89.22
17230;BME280;8731;50.364;8.958;2023-02-11T05:27:32;101909.38;;;2.99;88.47
17230;BME280;8731;50.364;8.958;2023-02-11T05:31:57;101913.03;;;2.96;89.22
17230;BME280;8731;50.364;8.958;2023-02-11T05:36:19;101913.94;;;3.02;89.08
17230;BME280;8731;50.364;8.958;2023-02-11T05:40:42;101913.47;;;2.99;88.96
17230;BME280;8731;50.364;8.958;2023-02-11T05:45:05;101914.16;;;3.03;88.11
17230;BME280;8731;50.364;8.958;2023-02-11T05:49:29;101906.84;;;2.99;88.29
17230;BME280;8731;50.364;8.958;2023-02-11T05:53:52;101910.50;;;3.01;88.56
17230;BME280;8731;50.364;8.958;2023-02-11T05:58:14;101924.00;;;3.07;88.57
17230;BME280;8731;50.364;8.958;2023-02-11T06:02:37;101916.47;;;3.02;88.20
17230;BME280;8731;50.364;8.958;2023-02-11T06:07:00;101916.47;;;3.02;87.98
17230;BME280;8731;50.364;8.958;2023-02-11T06:11:23;101905.47;;;3.01;87.30
17230;BME280;8731;50.364;8.958;2023-02-11T06:15:54;101899.53;;;2.95;87.91
17230;BME280;8731;50.364;8.958;2023-02-11T06:20:17;101893.81;;;2.96;87.92
17230;BME280;8731;50.364;8.958;2023-02-11T06:24:41;101892.00;;;2.95;87.81
17230;BME280;8731;50.364;8.958;2023-02-11T06:29:04;101898.84;;;2.96;87.74
17230;BME280;8731;50.364;8.958;2023-02-11T06:33:26;101910.06;;;2.98;87.46
17230;BME280;8731;50.364;8.958;2023-02-11T06:37:48;101896.09;;;2.95;88.10
17230;BME280;8731;50.364;8.958;2023-02-11T06:42:14;101905.72;;;2.97;87.57
17230;BME280;8731;50.364;8.958;2023-02-11T06:46:36;101897.03;;;2.95;87.95
17230;BME280;8731;50.364;8.958;2023-02-11T06:51:00;101899.31;;;2.94;87.49
17230;BME280;8731;50.364;8.958;2023-02-11T06:55:24;101913.25;;;2.97;88.13
17230;BME280;8731;50.364;8.958;2023-02-11T06:59:48;101914.41;;;2.99;87.67
17230;BME280;8731;50.364;8.958;2023-02-11T07:04:11;101910.28;;;3.00;87.66
17230;BME280;8731;50.364;8.958;2023-02-11T07:08:36;101915.53;;;3.01;87.33
17230;BME280;8731;50.364;8.958;2023-02-11T07:12:59;101910.97;;;3.04;87.92
17230;BME280;8731;50.364;8.958;2023-02-11T07:17:23;101904.81;;;3.08;86.64
17230;BME280;8731;50.364;8.958;2023-02-11T07:21:45;101917.16;;;3.12;87.51
17230;BME280;8731;50.364;8.958;2023-02-11T07:26:11;101918.06;;;3.13;87.56
17230;BME280;8731;50.364;8.958;2023-02-11T07:30:34;101922.41;;;3.14;86.99
17230;BME280;8731;50.364;8.958;2023-02-11T07:34:58;101925.84;;;3.20;86.87
17230;BME280;8731;50.364;8.958;2023-02-11T07:39:20;101938.19;;;3.24;86.65
17230;BME280;8731;50.364;8.958;2023-02-11T07:43:46;101951.00;;;3.31;86.60
17230;BME280;8731;50.364;8.958;2023-02-11T07:48:09;101948.50;;;3.36;87.19
17230;BME280;8731;50.364;8.958;2023-02-11T07:52:32;101937.50;;;3.42;86.74
17230;BME280;8731;50.364;8.958;2023-02-11T07:56:55;101946.63;;;3.63;86.17
17230;BME280;8731;50.364;8.958;2023-02-11T08:01:19;101946.38;;;3.79;86.02
17230;BME280;8731;50.364;8.958;2023-02-11T08:05:45;101962.81;;;3.93;85.59
17230;BME280;8731;50.364;8.958;2023-02-11T08:10:08;101958.91;;;4.01;85.66
17230;BME280;8731;50.364;8.958;2023-02-11T08:14:31;101962.34;;;4.07;86.31
17230;BME280;8731;50.364;8.958;2023-02-11T08:18:55;101973.13;;;4.06;86.21
17230;BME280;8731;50.364;8.958;2023-02-11T08:23:18;101981.97;;;4.21;85.55
17230;BME280;8731;50.364;8.958;2023-02-11T08:27:42;101975.47;;;4.45;86.36
17230;BME280;8731;50.364;8.958;2023-02-11T08:32:04;101983.72;;;4.44;85.68
17230;BME280;8731;50.364;8.958;2023-02-11T08:36:28;101983.97;;;4.40;85.80
17230;BME280;8731;50.364;8.958;2023-02-11T08:40:54;101985.78;;;4.47;84.34
17230;BME280;8731;50.364;8.958;2023-02-11T08:45:21;101986.00;;;4.48;84.31
17230;BME280;8731;50.364;8.958;2023-02-11T08:49:43;101981.88;;;4.49;85.29
17230;BME280;8731;50.364;8.958;2023-02-11T08:54:05;101980.09;;;4.37;84.46
17230;BME280;8731;50.364;8.958;2023-02-11T08:58:29;101972.72;;;4.44;84.75
17230;BME280;8731;50.364;8.958;2023-02-11T09:02:52;101980.44;;;4.62;85.42
17230;BME280;8731;50.364;8.958;2023-02-11T09:07:14;101980.94;;;4.48;84.84
17230;BME280;8731;50.364;8.958;2023-02-11T09:11:37;101981.88;;;4.54;84.33
17230;BME280;8731;50.364;8.958;2023-02-11T09:16:02;101995.91;;;4.41;83.46
17230;BME280;8731;50.364;8.958;2023-02-11T09:20:27;101987.97;;;4.68;83.62
17230;BME280;8731;50.364;8.958;2023-02-11T09:24:49;101995.66;;;4.51;82.06
17230;BME280;8731;50.364;8.958;2023-02-11T09:29:12;101990.09;;;4.59;83.80
17230;BME280;8731;50.364;8.958;2023-02-11T09:33:35;101984.06;;;4.75;83.92
17230;BME280;8731;50.364;8.958;2023-02-11T09:38:02;101987.88;;;4.84;84.49
17230;BME280;8731;50.364;8.958;2023-02-11T09:42:45;101995.97;;;4.71;83.60
17230;BME280;8731;50.364;8.958;2023-02-11T09:47:22;101999.63;;;4.78;84.38
17230;BME280;8731;50.364;8.958;2023-02-11T09:51:50;101999.63;;;4.73;82.98
17230;BME280;8731;50.364;8.958;2023-02-11T09:56:18;101993.09;;;4.91;83.30
17230;BME280;8731;50.364;8.958;2023-02-11T10:00:45;102000.81;;;5.10;83.86
17230;BME280;8731;50.364;8.958;2023-02-11T10:05:24;101999.25;;;5.05;83.82
17230;BME280;8731;50.364;8.958;2023-02-11T10:10:06;102001.88;;;5.23;83.94
17230;BME280;8731;50.364;8.958;2023-02-11T10:14:55;101999.13;;;5.21;83.66
17230;BME280;8731;50.364;8.958;2023-02-11T10:19:50;101997.06;;;5.19;83.44
17230;BME280;8731;50.364;8.958;2023-02-11T10:24:21;101997.47;;;5.28;82.58
17230;BME280;8731;50.364;8.958;2023-02-11T10:28:45;101996.94;;;5.36;82.90
17230;BME280;8731;50.364;8.958;2023-02-11T10:33:15;102012.31;;;5.37;81.92
17230;BME280;8731;50.364;8.958;2023-02-11T10:37:43;102008.81;;;5.42;82.55
17230;BME280;8731;50.364;8.958;2023-02-11T10:42:08;102007.44;;;5.44;81.80
17230;BME280;8731;50.364;8.958;2023-02-11T10:46:35;102001.94;;;5.41;81.61
17230;BME280;8731;50.364;8.958;2023-02-11T10:51:12;102003.84;;;5.84;82.06
17230;BME280;8731;50.364;8.958;2023-02-11T10:55:38;102003.06;;;5.73;82.36
17230;BME280;8731;50.364;8.958;2023-02-11T11:00:26;102005.16;;;5.70;81.79
17230;BME280;8731;50.364;8.958;2023-02-11T11:04:57;101998.88;;;5.79;81.19
17230;BME280;8731;50.364;8.958;2023-02-11T11:09:28;102005.69;;;5.85;82.35
17230;BME280;8731;50.364;8.958;2023-02-11T11:14:03;102006.03;;;6.00;81.78
17230;BME280;8731;50.364;8.958;2023-02-11T11:18:25;102009.78;;;5.91;80.69
17230;BME280;8731;50.364;8.958;2023-02-11T11:22:49;102006.97;;;6.00;81.74
17230;BME280;8731;50.364;8.958;2023-02-11T11:27:19;101993.19;;;5.98;81.29
17230;BME280;8731;50.364;8.958;2023-02-11T11:31:50;101979.44;;;5.96;80.52
17230;BME280;8731;50.364;8.958;2023-02-11T11:36:19;101982.25;;;5.92;80.23
17230;BME280;8731;50.364;8.958;2023-02-11T11:40:43;101989.72;;;6.22;81.50
17230;BME280;8731;50.364;8.958;2023-02-11T11:45:24;101993.09;;;6.28;80.04
17230;BME280;8731;50.364;8.958;2023-02-11T11:49:54;101992.97;;;6.39;81.29
17230;BME280;8731;50.364;8.958;2023-02-11T11:54:35;101980.31;;;6.39;81.61
17230;BME280;8731;50.364;8.958;2023-02-11T11:58:59;101981.38;;;6.46;81.60
17230;BME280;8731;50.364;8.958;2023-02-11T12:04:09;101971.28;;;6.59;81.36
17230;BME280;8731;50.364;8.958;2023-02-11T12:08:47;101967.16;;;6.60;80.78
17230;BME280;8731;50.364;8.958;2023-02-11T12:13:29;101970.59;;;6.60;80.97
17230;BME280;8731;50.364;8.958;2023-02-11T12:18:11;101972.00;;;6.76;80.90
17230;BME280;8731;50.364;8.958;2023-02-11T12:22:50;101971.41;;;6.85;80.97
17230;BME280;8731;50.364;8.958;2023-02-11T12:27:32;101969.75;;;6.72;81.51
17230;BME280;8731;50.364;8.958;2023-02-11T12:32:17;101969.34;;;6.69;81.34
17230;BME280;8731;50.364;8.958;2023-02-11T12:37:00;101959.03;;;6.81;82.06
17230;BME280;8731;50.364;8.958;2023-02-11T12:41:56;101960.66;;;6.80;82.33
17230;BME280;8731;50.364;8.958;2023-02-11T12:47:14;101961.28;;;6.85;81.84
17230;BME280;8731;50.364;8.958;2023-02-11T12:51:54;101963.09;;;6.86;81.99
17230;BME280;8731;50.364;8.958;2023-02-11T12:56:35;101956.06;;;6.96;81.84
17230;BME280;8731;50.364;8.958;2023-02-11T13:01:08;101952.56;;;6.83;81.83
17230;BME280;8731;50.364;8.958;2023-02-11T13:05:38;101946.94;;;6.91;82.64
17230;BME280;8731;50.364;8.958;2023-02-11T13:10:25;101949.38;;;6.96;82.09
17230;BME280;8731;50.364;8.958;2023-02-11T13:14:55;101945.03;;;6.95;81.83
17230;BME280;8731;50.364;8.958;2023-02-11T13:19:29;101935.91;;;6.90;82.06
17230;BME280;8731;50.364;8.958;2023-02-11T13:24:02;101933.78;;;7.06;82.27
17230;BME280;8731;50.364;8.958;2023-02-11T13:28:40;101920.88;;;7.10;82.49
17230;BME280;8731;50.364;8.958;2023-02-11T13:33:31;101930.28;;;7.11;82.97
17230;BME280;8731;50.364;8.958;2023-02-11T13:37:57;101929.47;;;7.18;83.30
17230;BME280;8731;50.364;8.958;2023-02-11T13:42:20;101927.84;;;7.18;82.91
17230;BME280;8731;50.364;8.958;2023-02-11T13:46:48;101926.34;;;7.13;83.28
17230;BME280;8731;50.364;8.958;2023-02-11T13:51:16;101934.13;;;7.15;83.25
17230;BME280;8731;50.364;8.958;2023-02-11T13:56:07;101933.31;;;7.21;82.59
17230;BME280;8731;50.364;8.958;2023-02-11T14:00:44;101929.56;;;7.12;82.46
17230;BME280;8731;50.364;8.958;2023-02-11T14:05:24;101935.56;;;7.13;82.99
17230;BME280;8731;50.364;8.958;2023-02-11T14:10:47;101936.25;;;7.24;82.99
17230;BME280;8731;50.364;8.958;2023-02-11T14:15:37;101939.50;;;7.23;83.46
17230;BME280;8731;50.364;8.958;2023-02-11T14:20:02;101936.16;;;7.30;83.27
17230;BME280;8731;50.364;8.958;2023-02-11T14:24:48;101944.88;;;7.32;83.47
17230;BME280;8731;50.364;8.958;2023-02-11T14:29:16;101949.47;;;7.34;83.41
17230;BME280;8731;50.364;8.958;2023-02-11T14:33:54;101947.50;;;7.26;83.34
17230;BME280;8731;50.364;8.958;2023-02-11T14:38:38;101946.28;;;7.30;83.82
17230;BME280;8731;50.364;8.958;2023-02-11T14:43:11;101943.25;;;7.32;83.68
17230;BME280;8731;50.364;8.958;2023-02-11T14:47:41;101956.75;;;7.38;83.90
17230;BME280;8731;50.364;8.958;2023-02-11T14:52:28;101957.16;;;7.42;84.00
17230;BME280;8731;50.364;8.958;2023-02-11T14:57:08;101963.34;;;7.44;84.19
17230;BME280;8731;50.364;8.958;2023-02-11T15:01:38;101969.13;;;7.43;84.22
17230;BME280;8731;50.364;8.958;2023-02-11T15:06:04;101976.94;;;7.44;84.24
17230;BME280;8731;50.364;8.958;2023-02-11T15:10:39;101973.91;;;7.47;84.19
17230;BME280;8731;50.364;8.958;2023-02-11T15:15:03;101970.94;;;7.44;84.15
17230;BME280;8731;50.364;8.958;2023-02-11T15:19:28;101981.91;;;7.50;84.03
17230;BME280;8731;50.364;8.958;2023-02-11T15:23:55;101969.44;;;7.51;83.73
17230;BME280;8731;50.364;8.958;2023-02-11T15:28:23;101973.59;;;7.51;83.68
17230;BME280;8731;50.364;8.958;2023-02-11T15:32:48;101979.06;;;7.54;83.46
17230;BME280;8731;50.364;8.958;2023-02-11T15:37:19;101993.34;;;7.53;83.52
17230;BME280;8731;50.364;8.958;2023-02-11T15:41:43;101989.41;;;7.55;83.58
17230;BME280;8731;50.364;8.958;2023-02-11T15:46:07;101989.59;;;7.57;84.36
17230;BME280;8731;50.364;8.958;2023-02-11T15:50:34;101984.44;;;7.50;83.58
17230;BME280;8731;50.364;8.958;2023-02-11T15:54:59;101981.19;;;7.51;83.92
17230;BME280;8731;50.364;8.958;2023-02-11T15:59:25;101996.59;;;7.52;83.84
17230;BME280;8731;50.364;8.958;2023-02-11T16:03:51;101984.84;;;7.53;83.53
17230;BME280;8731;50.364;8.958;2023-02-11T16:08:20;101984.84;;;7.53;83.61
17230;BME280;8731;50.364;8.958;2023-02-11T16:12:50;101991.53;;;7.52;84.15
17230;BME280;8731;50.364;8.958;2023-02-11T16:17:22;101992.25;;;7.51;84.07
17230;BME280;8731;50.364;8.958;2023-02-11T16:21:48;101996.69;;;7.47;84.57
17230;BME280;8731;50.364;8.958;2023-02-11T16:26:20;102003.59;;;7.48;84.48
17230;BME280;8731;50.364;8.958;2023-02-11T16:30:50;101999.03;;;7.45;84.77
17230;BME280;8731;50.364;8.958;2023-02-11T16:35:14;102000.34;;;7.49;85.32
17230;BME280;8731;50.364;8.958;2023-02-11T16:39:38;101999.13;;;7.52;84.79
17230;BME280;8731;50.364;8.958;2023-02-11T16:44:00;101997.91;;;7.43;84.85
17230;BME280;8731;50.364;8.958;2023-02-11T16:48:22;101997.00;;;7.43;84.88
17230;BME280;8731;50.364;8.958;2023-02-11T16:52:45;102013.63;;;7.41;84.77
17230;BME280;8731;50.364;8.958;2023-02-11T16:57:12;102008.91;;;7.31;84.79
17230;BME280;8731;50.364;8.958;2023-02-11T17:01:39;102016.25;;;7.35;84.62
17230;BME280;8731;50.364;8.958;2023-02-11T17:06:03;102020.47;;;7.29;84.61
17230;BME280;8731;50.364;8.958;2023-02-11T17:10:26;102021.31;;;7.35;84.61
17230;BME280;8731;50.364;8.958;2023-02-11T17:14:51;102028.28;;;7.30;84.42
17230;BME280;8731;50.364;8.958;2023-02-11T17:19:15;102038.16;;;7.34;84.33
17230;BME280;8731;50.364;8.958;2023-02-11T17:23:40;102039.13;;;7.29;84.41
17230;BME280;8731;50.364;8.958;2023-02-11T17:28:03;102044.75;;;7.39;84.59
17230;BME280;8731;50.364;8.958;2023-02-11T17:32:28;102040.75;;;7.29;84.56
17230;BME280;8731;50.364;8.958;2023-02-11T17:36:51;102048.53;;;7.30;84.33
17230;BME280;8731;50.364;8.958;2023-02-11T17:41:13;102058.28;;;7.27;84.70
17230;BME280;8731;50.364;8.958;2023-02-11T17:45:39;102044.47;;;7.25;84.60
17230;BME280;8731;50.364;8.958;2023-02-11T17:50:04;102049.56;;;7.25;84.63
17230;BME280;8731;50.364;8.958;2023-02-11T17:54:27;102055.31;;;7.24;84.31
17230;BME280;8731;50.364;8.958;2023-02-11T17:58:50;102064.53;;;7.24;84.58
17230;BME280;8731;50.364;8.958;2023-02-11T18:03:12;102055.63;;;7.20;84.89
17230;BME280;8731;50.364;8.958;2023-02-11T18:07:36;102064.53;;;7.24;85.10
17230;BME280;8731;50.364;8.958;2023-02-11T18:11:58;102068.69;;;7.23;85.20
17230;BME280;8731;50.364;8.958;2023-02-11T18:16:21;102058.16;;;7.20;85.05
17230;BME280;8731;50.364;8.958;2023-02-11T18:20:54;102060.69;;;7.20;86.12
17230;BME280;8731;50.364;8.958;2023-02-11T18:25:19;102070.72;;;7.26;85.64
17230;BME280;8731;50.364;8.958;2023-02-11T18:29:41;102067.50;;;7.27;85.75
17230;BME280;8731;50.364;8.958;2023-02-11T18:34:04;102062.94;;;7.24;85.79
17230;BME280;8731;50.364;8.958;2023-02-11T18:38:29;102069.41;;;7.22;86.05
17230;BME280;8731;50.364;8.958;2023-02-11T18:42:53;102069.09;;;7.14;85.74
17230;BME280;8731;50.364;8.958;2023-02-11T18:47:17;102064.50;;;7.11;86.11
17230;BME280;8731;50.364;8.958;2023-02-11T18:51:39;102054.22;;;7.04;85.92
17230;BME280;8731;50.364;8.958;2023-02-11T18:56:05;102066.34;;;7.12;85.80
17230;BME280;8731;50.364;8.958;2023-02-11T19:00:29;102067.75;;;7.10;85.54
17230;BME280;8731;50.364;8.958;2023-02-11T19:04:52;102071.66;;;7.08;85.87
17230;BME280;8731;50.364;8.958;2023-02-11T19:09:15;102090.47;;;6.97;86.28
17230;BME280;8731;50.364;8.958;2023-02-11T19:13:39;102084.78;;;6.93;85.96
17230;BME280;8731;50.364;8.958;2023-02-11T19:18:03;102088.63;;;6.96;86.16
17230;BME280;8731;50.364;8.958;2023-02-11T19:22:26;102105.31;;;6.89;86.41
17230;BME280;8731;50.364;8.958;2023-02-11T19:26:50;102105.03;;;6.74;86.80
17230;BME280;8731;50.364;8.958;2023-02-11T19:31:15;102105.50;;;6.72;87.46
17230;BME280;8731;50.364;8.958;2023-02-11T19:35:39;102108.34;;;6.68;88.04
17230;BME280;8731;50.364;8.958;2023-02-11T19:40:01;102106.28;;;6.65;88.23
17230;BME280;8731;50.364;8.958;2023-02-11T19:44:24;102115.22;;;6.69;87.79
17230;BME280;8731;50.364;8.958;2023-02-11T19:48:47;102106.94;;;6.70;87.77
17230;BME280;8731;50.364;8.958;2023-02-11T19:53:11;102108.13;;;6.66;87.73
17230;BME280;8731;50.364;8.958;2023-02-11T19:57:35;102103.75;;;6.65;88.35
17230;BME280;8731;50.364;8.958;2023-02-11T20:01:57;102102.28;;;6.73;87.76
17230;BME280;8731;50.364;8.958;2023-02-11T20:06:22;102106.84;;;6.75;87.26
17230;BME280;8731;50.364;8.958;2023-02-11T20:10:48;102107.25;;;6.78;87.05
17230;BME280;8731;50.364;8.958;2023-02-11T20:15:10;102105.03;;;6.74;87.11
17230;BME280;8731;50.364;8.958;2023-02-11T20:19:33;102107.84;;;6.70;88.13
17230;BME280;8731;50.364;8.958;2023-02-11T20:23:55;102111.78;;;6.68;88.14
17230;BME280;8731;50.364;8.958;2023-02-11T20:28:19;102107.84;;;6.70;87.99
17230;BME280;8731;50.364;8.958;2023-02-11T20:32:42;102114.72;;;6.71;88.18
17230;BME280;8731;50.364;8.958;2023-02-11T20:37:04;102112.41;;;6.73;87.88
17230;BME280;8731;50.364;8.958;2023-02-11T20:41:29;102112.63;;;6.74;87.21
17230;BME280;8731;50.364;8.958;2023-02-11T20:45:54;102113.59;;;6.69;87.71
17230;BME280;8731;50.364;8.958;2023-02-11T20:50:21;102117.44;;;6.55;88.39
17230;BME280;8731;50.364;8.958;2023-02-11T20:54:43;102134.66;;;6.57;87.90
17230;BME280;8731;50.364;8.958;2023-02-11T20:59:06;102138.50;;;6.42;88.07
17230;BME280;8731;50.364;8.958;2023-02-11T21:03:30;102146.19;;;6.55;87.77
17230;BME280;8731;50.364;8.958;2023-02-11T21:07:52;102136.34;;;6.51;87.71
17230;BME280;8731;50.364;8.958;2023-02-11T21:12:14;102157.56;;;6.46;88.15
17230;BME280;8731;50.364;8.958;2023-02-11T21:16:37;102167.47;;;6.44;88.67
17230;BME280;8731;50.364;8.958;2023-02-11T21:21:01;102159.81;;;6.26;88.65
17230;BME280;8731;50.364;8.958;2023-02-11T21:25:23;102162.69;;;6.40;88.87
17230;BME280;8731;50.364;8.958;2023-02-11T21:29:46;102173.00;;;6.42;88.11
17230;BME280;8731;50.364;8.958;2023-02-11T21:34:08;102185.59;;;6.24;89.81
17230;BME280;8731;50.364;8.958;2023-02-11T21:38:32;102191.84;;;6.20;90.13
17230;BME280;8731;50.364;8.958;2023-02-11T21:42:55;102182.31;;;6.30;89.41
17230;BME280;8731;50.364;8.958;2023-02-11T21:47:18;102177.03;;;6.29;89.43
17230;BME280;8731;50.364;8.958;2023-02-11T21:51:40;102174.28;;;6.27;89.18
17230;BME280;8731;50.364;8.958;2023-02-11T21:56:06;102180.91;;;6.32;89.16
17230;BME280;8731;50.364;8.958;2023-02-11T22:00:30;102177.72;;;6.28;89.03
17230;BME280;8731;50.364;8.958;2023-02-11T22:04:52;102172.63;;;6.33;89.65
17230;BME280;8731;50.364;8.958;2023-02-11T22:09:15;102167.53;;;6.39;89.31
17230;BME280;8731;50.364;8.958;2023-02-11T22:13:39;102178.09;;;6.36;89.19
17230;BME280;8731;50.364;8.958;2023-02-11T22:18:02;102166.25;;;6.24;89.21
17230;BME280;8731;50.364;8.958;2023-02-11T22:22:25;102175.25;;;6.22;90.25
17230;BME280;8731;50.364;8.958;2023-02-11T22:26:48;102186.69;;;6.02;91.16
17230;BME280;8731;50.364;8.958;2023-02-11T22:31:14;102177.84;;;6.11;91.42
17230;BME280;8731;50.364;8.958;2023-02-11T22:35:37;102191.56;;;6.24;89.99
17230;BME280;8731;50.364;8.958;2023-02-11T22:40:00;102194.31;;;6.26;89.73
17230;BME280;8731;50.364;8.958;2023-02-11T22:44:23;102199.78;;;6.29;89.09
17230;BME280;8731;50.364;8.958;2023-02-11T22:48:47;102195.44;;;6.28;89.16
17230;BME280;8731;50.364;8.958;2023-02-11T22:53:10;102195.88;;;6.31;89.19
17230;BME280;8731;50.364;8.958;2023-02-11T22:57:32;102203.03;;;6.28;89.06
17230;BME280;8731;50.364;8.958;2023-02-11T23:01:54;102200.91;;;6.31;89.50
17230;BME280;8731;50.364;8.958;2023-02-11T23:06:18;102203.56;;;6.20;89.75
17230;BME280;8731;50.364;8.958;2023-02-11T23:10:41;102216.69;;;6.11;90.47
17230;BME280;8731;50.364;8.958;2023-02-11T23:15:03;102228.16;;;6.21;90.24
17230;BME280;8731;50.364;8.958;2023-02-11T23:19:26;102219.50;;;6.07;90.97
17230;BME280;8731;50.364;8.958;2023-02-11T23:23:52;102220.56;;;6.15;90.21
17230;BME280;8731;50.364;8.958;2023-02-11T23:28:16;102218.75;;;6.14;89.57
17230;BME280;8731;50.364;8.958;2023-02-11T23:32:38;102226.66;;;6.04;90.54
17230;BME280;8731;50.364;8.958;2023-02-11T23:37:00;102224.28;;;6.11;90.61
17230;BME280;8731;50.364;8.958;2023-02-11T23:41:24;102226.44;;;6.03;90.61
17230;BME280;8731;50.364;8.958;2023-02-11T23:45:47;102216.84;;;5.95;90.78
17230;BME280;8731;50.364;8.958;2023-02-11T23:50:11;102215.78;;;6.11;90.14
17230;BME280;8731;50.364;8.958;2023-02-11T23:54:33;102229.13;;;6.15;89.95
17230;BME280;8731;50.364;8.958;2023-02-11T23:58:57;102215.84;;;6.05;90.81
